createdAt,value
2023-05-06T00:00:22.689Z,100.00
2023-05-06T00:02:57.693Z,100.00
2023-05-06T00:05:31.014Z,100.00
2023-05-06T00:08:04.351Z,100.00
2023-05-06T00:10:37.733Z,100.00
2023-05-06T00:13:11.474Z,100.00
2023-05-06T00:15:44.918Z,100.00
2023-05-06T00:18:22.473Z,100.00
2023-05-06T00:20:56.519Z,100.00
2023-05-06T00:23:31.321Z,100.00
2023-05-06T00:26:05.354Z,100.00
2023-05-06T00:28:39.061Z,100.00
2023-05-06T00:31:12.929Z,100.00
2023-05-06T00:33:47.686Z,100.00
2023-05-06T00:36:21.409Z,100.00
2023-05-06T00:38:54.922Z,100.00
2023-05-06T00:41:32.878Z,100.00
2023-05-06T00:44:06.504Z,100.00
2023-05-06T00:46:40.759Z,100.00
2023-05-06T00:49:15.635Z,100.00
2023-05-06T00:51:49.453Z,100.00
2023-05-06T00:54:23.240Z,100.00
2023-05-06T00:56:56.654Z,100.00
2023-05-06T00:59:30.256Z,100.00
2023-05-06T01:02:04.516Z,100.00
2023-05-06T01:04:41.765Z,100.00
2023-05-06T01:07:31.127Z,100.00
2023-05-06T01:10:13.614Z,100.00
2023-05-06T01:12:55.848Z,100.00
2023-05-06T01:15:35.109Z,100.00
2023-05-06T01:18:12.178Z,100.00
2023-05-06T01:20:50.024Z,100.00
2023-05-06T01:23:25.276Z,100.00
2023-05-06T01:25:58.929Z,100.00
2023-05-06T01:28:32.501Z,100.00
2023-05-06T01:31:13.205Z,100.00
2023-05-06T01:33:55.550Z,100.00
2023-05-06T01:36:39.018Z,100.00
2023-05-06T01:39:18.630Z,100.00
2023-05-06T01:41:53.845Z,100.00
2023-05-06T01:44:30.715Z,100.00
2023-05-06T01:47:08.342Z,100.00
2023-05-06T01:49:42.009Z,100.00
2023-05-06T01:52:17.488Z,100.00
2023-05-06T01:54:52.618Z,100.00
2023-05-06T01:57:26.379Z,100.00
2023-05-06T01:59:59.896Z,100.00
2023-05-06T02:02:33.671Z,100.00
2023-05-06T02:05:08.404Z,100.00
2023-05-06T02:07:46.537Z,100.00
2023-05-06T02:10:21.838Z,100.00
2023-05-06T02:13:02.933Z,100.00
2023-05-06T02:15:36.395Z,100.00
2023-05-06T02:18:10.628Z,100.00
2023-05-06T02:20:44.525Z,100.00
2023-05-06T02:23:25.338Z,100.00
2023-05-06T02:26:02.954Z,100.00
2023-05-06T02:28:36.968Z,100.00
2023-05-06T02:31:10.764Z,100.00
2023-05-06T02:33:46.341Z,100.00
2023-05-06T02:36:20.361Z,100.00
2023-05-06T02:38:55.663Z,100.00
2023-05-06T02:41:32.656Z,100.00
2023-05-06T02:44:06.681Z,100.00
2023-05-06T02:46:47.226Z,100.00
2023-05-06T02:49:23.688Z,100.00
2023-05-06T02:51:59.340Z,100.00
2023-05-06T02:54:33.985Z,100.00
2023-05-06T02:57:12.452Z,100.00
2023-05-06T02:59:51.317Z,100.00
2023-05-06T03:02:28.991Z,100.00
2023-05-06T03:05:06.087Z,100.00
2023-05-06T03:07:40.593Z,100.00
2023-05-06T03:10:16.704Z,100.00
2023-05-06T03:12:52.775Z,100.00
2023-05-06T03:15:26.114Z,100.00
2023-05-06T03:18:00.328Z,100.00
2023-05-06T03:20:35.195Z,100.00
2023-05-06T03:23:10.329Z,100.00
2023-05-06T03:25:44.005Z,100.00
2023-05-06T03:28:21.449Z,100.00
2023-05-06T03:30:55.765Z,100.00
2023-05-06T03:33:29.246Z,100.00
2023-05-06T03:36:02.652Z,100.00
2023-05-06T03:38:36.222Z,100.00
2023-05-06T03:41:14.146Z,100.00
2023-05-06T03:43:49.301Z,100.00
2023-05-06T03:46:28.509Z,100.00
2023-05-06T03:49:03.175Z,100.00
2023-05-06T03:51:37.261Z,100.00
2023-05-06T03:54:10.895Z,100.00
2023-05-06T03:56:44.330Z,100.00
2023-05-06T03:59:20.223Z,100.00
2023-05-06T04:01:54.255Z,100.00
2023-05-06T04:04:28.763Z,100.00
2023-05-06T04:07:04.014Z,100.00
2023-05-06T04:09:37.556Z,100.00
2023-05-06T04:12:13.931Z,100.00
2023-05-06T04:14:49.622Z,100.00
2023-05-06T04:17:23.011Z,100.00
2023-05-06T04:19:56.621Z,100.00
2023-05-06T04:22:30.628Z,100.00
2023-05-06T04:25:04.307Z,100.00
2023-05-06T04:27:39.042Z,100.00
2023-05-06T04:30:16.415Z,100.00
2023-05-06T04:32:49.265Z,100.00
2023-05-06T04:35:23.528Z,100.00
2023-05-06T04:37:57.910Z,100.00
2023-05-06T04:40:36.768Z,100.00
2023-05-06T04:43:10.558Z,100.00
2023-05-06T04:45:49.162Z,100.00
2023-05-06T04:48:26.232Z,100.00
2023-05-06T04:51:04.424Z,100.00
2023-05-06T04:53:37.804Z,100.00
2023-05-06T04:56:10.664Z,100.00
2023-05-06T04:58:43.491Z,100.00
2023-05-06T05:01:19.329Z,100.00
2023-05-06T05:03:52.484Z,100.00
2023-05-06T05:06:27.141Z,100.00
2023-05-06T05:09:00.258Z,100.00
2023-05-06T05:11:34.171Z,100.00
2023-05-06T05:14:07.087Z,100.00
2023-05-06T05:16:41.960Z,100.00
2023-05-06T05:19:15.713Z,100.00
2023-05-06T05:21:50.701Z,100.00
2023-05-06T05:24:23.738Z,100.00
2023-05-06T05:26:57.270Z,100.00
2023-05-06T05:29:30.600Z,100.00
2023-05-06T05:32:08.318Z,100.00
2023-05-06T05:34:41.430Z,100.00
2023-05-06T05:37:14.772Z,100.00
2023-05-06T05:39:47.639Z,100.00
2023-05-06T05:42:21.841Z,100.00
2023-05-06T05:44:55.350Z,100.00
2023-05-06T05:47:29.780Z,100.00
2023-05-06T05:50:02.686Z,100.00
2023-05-06T05:52:36.500Z,100.00
2023-05-06T05:55:11.037Z,100.00
2023-05-06T05:57:45.311Z,100.00
2023-05-06T06:00:19.443Z,100.00
2023-05-06T06:02:53.642Z,100.00
2023-05-06T06:05:27.051Z,100.00
2023-05-06T06:08:02.218Z,100.00
2023-05-06T06:10:36.864Z,100.00
2023-05-06T06:13:15.937Z,100.00
2023-05-06T06:15:48.896Z,100.00
2023-05-06T06:18:23.200Z,100.00
2023-05-06T06:20:56.167Z,100.00
2023-05-06T06:23:29.976Z,100.00
2023-05-06T06:26:03.842Z,100.00
2023-05-06T06:28:38.975Z,100.00
2023-05-06T06:31:11.828Z,100.00
2023-05-06T06:33:46.250Z,100.00
2023-05-06T06:36:19.164Z,100.00
2023-05-06T06:38:52.002Z,100.00
2023-05-06T06:41:25.058Z,100.00
2023-05-06T06:43:57.802Z,100.00
2023-05-06T06:46:34.566Z,100.00
2023-05-06T06:49:08.736Z,100.00
2023-05-06T06:51:41.534Z,100.00
2023-05-06T06:54:14.321Z,100.00
2023-05-06T06:56:47.144Z,100.00
2023-05-06T06:59:19.973Z,100.00
2023-05-06T07:01:52.792Z,100.00
2023-05-06T07:04:28.109Z,100.00
2023-05-06T07:07:00.864Z,100.00
2023-05-06T07:09:35.474Z,100.00
2023-05-06T07:12:08.807Z,100.00
2023-05-06T07:14:41.623Z,100.00
2023-05-06T07:17:14.389Z,99.71
2023-05-06T07:19:48.869Z,100.00
2023-05-06T07:22:21.888Z,98.03
2023-05-06T07:24:55.161Z,96.19
2023-05-06T07:27:30.385Z,96.24
2023-05-06T07:30:03.212Z,95.08
2023-05-06T07:32:36.250Z,93.66
2023-05-06T07:35:10.858Z,93.94
2023-05-06T07:37:44.151Z,94.22
2023-05-06T07:40:17.027Z,93.76
2023-05-06T07:42:49.956Z,91.34
2023-05-06T07:45:25.163Z,92.70
2023-05-06T07:47:58.236Z,90.93
2023-05-06T07:50:32.790Z,91.30
2023-05-06T07:53:05.698Z,89.52
2023-05-06T07:55:38.755Z,89.03
2023-05-06T07:58:11.520Z,89.07
2023-05-06T08:00:44.489Z,88.85
2023-05-06T08:03:18.109Z,88.08
2023-05-06T08:05:52.921Z,86.21
2023-05-06T08:08:27.918Z,84.89
2023-05-06T08:11:01.283Z,86.05
2023-05-06T08:13:34.592Z,84.73
2023-05-06T08:16:08.205Z,84.66
2023-05-06T08:18:40.991Z,84.95
2023-05-06T08:21:15.274Z,83.93
2023-05-06T08:23:48.135Z,80.15
2023-05-06T08:26:21.365Z,81.11
2023-05-06T08:28:55.976Z,81.60
2023-05-06T08:31:28.779Z,79.54
2023-05-06T08:34:01.718Z,80.13
2023-05-06T08:36:36.297Z,82.24
2023-05-06T08:39:09.120Z,80.69
2023-05-06T08:41:42.936Z,82.22
2023-05-06T08:44:18.650Z,81.60
2023-05-06T08:46:51.795Z,81.86
2023-05-06T08:49:25.127Z,82.13
2023-05-06T08:51:59.666Z,81.68
2023-05-06T08:54:34.969Z,82.35
2023-05-06T08:57:12.879Z,78.99
2023-05-06T08:59:46.728Z,77.78
2023-05-06T09:02:19.541Z,78.19
2023-05-06T09:04:54.458Z,74.80
2023-05-06T09:07:28.636Z,78.98
2023-05-06T09:10:01.485Z,75.91
2023-05-06T09:12:37.757Z,78.25
2023-05-06T09:15:11.870Z,78.87
2023-05-06T09:17:45.324Z,75.39
2023-05-06T09:20:18.197Z,76.75
2023-05-06T09:22:53.960Z,75.17
2023-05-06T09:25:26.811Z,77.44
2023-05-06T09:28:05.436Z,76.35
2023-05-06T09:30:40.846Z,75.48
2023-05-06T09:33:13.780Z,73.88
2023-05-06T09:35:46.823Z,70.21
2023-05-06T09:38:21.758Z,69.83
2023-05-06T09:40:54.786Z,72.32
2023-05-06T09:43:27.680Z,70.86
2023-05-06T09:46:01.893Z,70.09
2023-05-06T09:48:34.955Z,65.80
2023-05-06T09:51:08.368Z,68.37
2023-05-06T09:53:44.816Z,65.48
2023-05-06T09:56:18.128Z,66.89
2023-05-06T09:58:52.484Z,70.77
2023-05-06T10:01:36.227Z,69.03
2023-05-06T10:04:12.902Z,68.31
2023-05-06T10:06:50.005Z,69.59
2023-05-06T10:09:25.444Z,68.52
2023-05-06T10:12:00.192Z,62.25
2023-05-06T10:14:33.146Z,63.22
2023-05-06T10:17:09.462Z,64.41
2023-05-06T10:19:46.330Z,65.05
2023-05-06T10:22:27.909Z,64.05
2023-05-06T10:25:13.081Z,63.92
2023-05-06T10:27:47.119Z,64.41
2023-05-06T10:30:20.898Z,63.34
2023-05-06T10:32:56.410Z,65.34
2023-05-06T10:35:43.344Z,62.52
2023-05-06T10:38:23.004Z,62.17
2023-05-06T10:40:59.185Z,62.02
2023-05-06T10:43:33.296Z,61.64
2023-05-06T10:46:09.212Z,61.77
2023-05-06T10:49:18.353Z,60.71
2023-05-06T10:52:12.759Z,56.66
2023-05-06T10:54:50.199Z,55.24
2023-05-06T10:57:27.068Z,58.75
2023-05-06T11:00:00.194Z,60.41
2023-05-06T11:02:33.265Z,59.12
2023-05-06T11:05:06.915Z,61.47
2023-05-06T11:07:39.728Z,58.16
2023-05-06T11:10:12.644Z,55.36
2023-05-06T11:12:51.255Z,58.53
2023-05-06T11:15:26.924Z,57.91
2023-05-06T11:17:59.931Z,59.14
2023-05-06T11:20:32.762Z,60.00
2023-05-06T11:23:05.981Z,58.39
2023-05-06T11:25:42.807Z,61.40
2023-05-06T11:28:17.035Z,57.79
2023-05-06T11:30:56.562Z,56.63
2023-05-06T11:33:33.489Z,58.76
2023-05-06T11:36:07.828Z,59.26
2023-05-06T11:38:44.200Z,59.74
2023-05-06T11:41:18.263Z,57.50
2023-05-06T11:43:54.649Z,58.87
2023-05-06T11:46:33.528Z,56.88
2023-05-06T11:49:06.976Z,56.45
2023-05-06T11:51:39.746Z,58.19
2023-05-06T11:54:12.498Z,59.72
2023-05-06T11:56:51.193Z,59.64
2023-05-06T11:59:31.164Z,55.50
2023-05-06T12:02:05.622Z,57.79
2023-05-06T12:04:39.847Z,57.44
2023-05-06T12:07:14.755Z,56.77
2023-05-06T12:09:50.065Z,57.17
2023-05-06T12:12:25.320Z,55.67
2023-05-06T12:14:59.887Z,54.93
2023-05-06T12:17:32.714Z,56.32
2023-05-06T12:20:12.553Z,54.85
2023-05-06T12:22:45.713Z,53.00
2023-05-06T12:25:19.298Z,55.11
2023-05-06T12:27:52.424Z,55.57
2023-05-06T12:30:34.414Z,54.86
2023-05-06T12:33:10.657Z,55.08
2023-05-06T12:35:43.838Z,55.46
2023-05-06T12:38:18.385Z,54.93
2023-05-06T12:40:55.386Z,54.91
2023-05-06T12:43:32.468Z,54.83
2023-05-06T12:46:07.786Z,56.16
2023-05-06T12:48:40.580Z,57.15
2023-05-06T12:51:21.389Z,56.71
2023-05-06T12:53:54.258Z,54.35
2023-05-06T12:56:27.142Z,53.78
2023-05-06T12:59:01.252Z,54.91
2023-05-06T13:01:35.513Z,58.89
2023-05-06T13:04:08.388Z,57.53
2023-05-06T13:06:41.162Z,57.34
2023-05-06T13:09:15.348Z,58.08
2023-05-06T13:11:48.600Z,58.13
2023-05-06T13:14:21.770Z,58.37
2023-05-06T13:16:56.353Z,59.18
2023-05-06T13:19:33.055Z,58.14
2023-05-06T13:22:06.300Z,56.50
2023-05-06T13:24:39.136Z,54.45
2023-05-06T13:27:12.269Z,55.30
2023-05-06T13:29:45.040Z,53.03
2023-05-06T13:32:19.144Z,51.79
2023-05-06T13:34:51.933Z,49.93
2023-05-06T13:37:24.730Z,53.24
2023-05-06T13:39:57.539Z,49.71
2023-05-06T13:42:30.719Z,51.26
2023-05-06T13:45:03.476Z,50.73
2023-05-06T13:47:37.667Z,52.09
2023-05-06T13:50:11.371Z,50.76
2023-05-06T13:52:44.258Z,49.42
2023-05-06T13:55:19.312Z,50.95
2023-05-06T13:57:52.331Z,52.86
2023-05-06T14:00:25.125Z,51.91
2023-05-06T14:02:59.527Z,53.12
2023-05-06T14:05:33.300Z,51.96
2023-05-06T14:08:06.534Z,51.53
2023-05-06T14:10:39.391Z,52.69
2023-05-06T14:13:12.502Z,51.23
2023-05-06T14:15:45.688Z,53.20
2023-05-06T14:18:19.821Z,52.02
2023-05-06T14:20:52.666Z,52.57
2023-05-06T14:23:25.641Z,52.46
2023-05-06T14:25:58.418Z,53.39
2023-05-06T14:28:31.203Z,52.75
2023-05-06T14:31:03.973Z,53.29
2023-05-06T14:33:38.678Z,54.34
2023-05-06T14:36:11.517Z,54.38
2023-05-06T14:38:44.321Z,54.29
2023-05-06T14:41:17.194Z,54.55
2023-05-06T14:43:50.045Z,56.40
2023-05-06T14:46:22.987Z,56.11
2023-05-06T14:48:57.153Z,57.06
2023-05-06T14:51:29.983Z,58.04
2023-05-06T14:54:02.755Z,56.51
2023-05-06T14:56:35.627Z,54.55
2023-05-06T14:59:08.580Z,53.80
2023-05-06T15:01:41.555Z,54.13
2023-05-06T15:04:15.766Z,55.60
2023-05-06T15:06:48.713Z,54.95
2023-05-06T15:09:21.426Z,55.40
2023-05-06T15:11:54.238Z,54.19
2023-05-06T15:14:27.134Z,56.10
2023-05-06T15:17:00.128Z,55.82
2023-05-06T15:19:34.785Z,56.23
2023-05-06T15:22:07.818Z,56.44
2023-05-06T15:24:40.812Z,56.65
2023-05-06T15:27:15.475Z,54.53
2023-05-06T15:29:48.443Z,55.05
2023-05-06T15:32:21.714Z,55.92
2023-05-06T15:34:56.125Z,55.40
2023-05-06T15:37:29.027Z,55.16
2023-05-06T15:40:02.248Z,53.97
2023-05-06T15:42:38.807Z,55.08
2023-05-06T15:45:12.620Z,54.19
2023-05-06T15:47:45.526Z,56.00
2023-05-06T15:50:32.909Z,56.46
2023-05-06T15:53:07.228Z,54.31
2023-05-06T15:55:46.667Z,56.04
2023-05-06T15:58:25.725Z,53.86
2023-05-06T16:00:58.624Z,54.75
2023-05-06T16:03:31.939Z,56.71
2023-05-06T16:06:06.443Z,57.85
2023-05-06T16:08:40.078Z,56.79
2023-05-06T16:11:14.218Z,56.14
2023-05-06T16:13:47.311Z,57.58
2023-05-06T16:16:20.333Z,56.58
2023-05-06T16:18:53.206Z,57.33
2023-05-06T16:21:27.426Z,59.17
2023-05-06T16:24:02.320Z,57.96
2023-05-06T16:26:35.507Z,57.85
2023-05-06T16:29:08.321Z,59.61
2023-05-06T16:31:41.404Z,57.36
2023-05-06T16:34:14.320Z,59.47
2023-05-06T16:36:48.547Z,57.72
2023-05-06T16:39:21.400Z,56.94
2023-05-06T16:41:54.277Z,56.01
2023-05-06T16:44:27.222Z,55.53
2023-05-06T16:47:00.216Z,54.41
2023-05-06T16:49:33.880Z,55.79
2023-05-06T16:52:08.128Z,56.66
2023-05-06T16:54:41.264Z,56.84
2023-05-06T16:57:14.134Z,57.28
2023-05-06T16:59:47.035Z,57.19
2023-05-06T17:02:19.958Z,53.60
2023-05-06T17:04:53.130Z,52.53
2023-05-06T17:07:27.556Z,54.93
2023-05-06T17:10:00.840Z,55.70
2023-05-06T17:12:34.060Z,54.70
2023-05-06T17:15:08.447Z,57.05
2023-05-06T17:17:45.680Z,57.13
2023-05-06T17:20:19.940Z,56.71
2023-05-06T17:22:54.454Z,58.79
2023-05-06T17:25:27.323Z,59.18
2023-05-06T17:28:00.339Z,59.56
2023-05-06T17:30:33.394Z,60.32
2023-05-06T17:33:07.294Z,61.15
2023-05-06T17:35:40.297Z,62.12
2023-05-06T17:38:16.820Z,61.66
2023-05-06T17:40:49.766Z,62.52
2023-05-06T17:43:22.696Z,63.40
2023-05-06T17:45:56.324Z,63.71
2023-05-06T17:48:29.275Z,63.35
2023-05-06T17:51:02.914Z,63.63
2023-05-06T17:53:38.605Z,65.28
2023-05-06T17:56:11.522Z,64.89
2023-05-06T17:58:44.511Z,62.96
2023-05-06T18:01:17.650Z,63.52
2023-05-06T18:03:51.304Z,64.21
2023-05-06T18:06:24.538Z,65.93
2023-05-06T18:08:58.917Z,67.64
2023-05-06T18:11:32.012Z,67.56
2023-05-06T18:14:05.413Z,69.29
2023-05-06T18:16:38.611Z,68.55
2023-05-06T18:19:11.944Z,69.46
2023-05-06T18:21:45.218Z,70.91
2023-05-06T18:24:20.046Z,71.28
2023-05-06T18:26:53.181Z,72.76
2023-05-06T18:29:27.625Z,73.68
2023-05-06T18:32:01.225Z,72.49
2023-05-06T18:34:34.535Z,71.61
2023-05-06T18:37:07.675Z,71.96
2023-05-06T18:39:43.343Z,72.87
2023-05-06T18:42:16.616Z,73.68
2023-05-06T18:44:50.468Z,74.81
2023-05-06T18:47:25.939Z,77.08
2023-05-06T18:50:00.776Z,76.06
2023-05-06T18:52:33.990Z,75.83
2023-05-06T18:55:09.869Z,76.31
2023-05-06T18:57:43.684Z,76.92
2023-05-06T19:00:16.995Z,76.89
2023-05-06T19:02:50.097Z,77.34
2023-05-06T19:05:23.468Z,77.69
2023-05-06T19:07:56.372Z,79.63
2023-05-06T19:10:30.766Z,81.44
2023-05-06T19:13:04.990Z,80.94
2023-05-06T19:15:37.854Z,79.88
2023-05-06T19:18:10.957Z,79.80
2023-05-06T19:20:44.756Z,80.46
2023-05-06T19:23:17.611Z,81.35
2023-05-06T19:25:52.213Z,82.19
2023-05-06T19:28:25.080Z,83.48
2023-05-06T19:30:57.959Z,84.23
2023-05-06T19:33:30.839Z,84.41
2023-05-06T19:36:03.941Z,83.71
2023-05-06T19:38:36.853Z,83.69
2023-05-06T19:41:11.587Z,83.46
2023-05-06T19:43:45.279Z,83.58
2023-05-06T19:46:18.085Z,84.02
2023-05-06T19:48:50.883Z,84.78
2023-05-06T19:51:23.656Z,83.88
2023-05-06T19:53:56.439Z,84.21
2023-05-06T19:56:30.710Z,84.60
2023-05-06T19:59:03.705Z,85.43
2023-05-06T20:01:36.485Z,86.38
2023-05-06T20:04:10.180Z,86.97
2023-05-06T20:06:43.030Z,86.99
2023-05-06T20:09:15.820Z,87.49
2023-05-06T20:12:23.926Z,87.86
2023-05-06T20:15:17.768Z,87.80
2023-05-06T20:18:13.872Z,89.68
2023-05-06T20:21:04.718Z,89.99
2023-05-06T20:23:49.609Z,89.58
2023-05-06T20:26:26.999Z,89.23
2023-05-06T20:29:15.426Z,89.67
2023-05-06T20:32:08.461Z,89.74
2023-05-06T20:35:02.866Z,90.68
2023-05-06T20:38:01.882Z,91.21
2023-05-06T20:41:07.260Z,92.04
2023-05-06T20:44:02.692Z,92.98
2023-05-06T20:47:13.973Z,94.07
2023-05-06T21:00:17.958Z,95.54
2023-05-06T21:03:29.669Z,96.61
2023-05-06T21:06:26.639Z,97.85
2023-05-06T21:09:21.558Z,99.73
2023-05-06T21:12:33.913Z,99.46
2023-05-06T21:15:20.214Z,100.00
2023-05-06T21:18:27.824Z,100.00
2023-05-06T21:21:23.815Z,99.97
2023-05-06T21:24:29.580Z,100.00
2023-05-06T21:27:20.209Z,100.00
2023-05-06T21:30:13.377Z,100.00
2023-05-06T21:33:02.465Z,100.00
2023-05-06T21:35:45.272Z,100.00
2023-05-06T21:38:23.546Z,100.00
2023-05-06T21:41:12.326Z,100.00
2023-05-06T21:43:54.090Z,100.00
2023-05-06T21:46:56.824Z,100.00
2023-05-06T21:49:40.454Z,100.00
2023-05-06T21:52:36.823Z,100.00
2023-05-06T21:55:22.851Z,100.00
2023-05-06T21:58:10.046Z,100.00
2023-05-06T22:00:46.029Z,100.00
2023-05-06T22:03:19.164Z,100.00
2023-05-06T22:05:51.949Z,100.00
2023-05-06T22:08:26.303Z,100.00
2023-05-06T22:10:59.423Z,100.00
2023-05-06T22:13:32.441Z,100.00
2023-05-06T22:16:06.733Z,100.00
2023-05-06T22:18:43.230Z,100.00
2023-05-06T22:21:16.304Z,100.00
2023-05-06T22:23:50.550Z,100.00
2023-05-06T22:26:24.320Z,100.00
2023-05-06T22:28:57.575Z,100.00
2023-05-06T22:31:30.815Z,100.00
2023-05-06T22:34:04.764Z,100.00
2023-05-06T22:36:37.718Z,100.00
2023-05-06T22:39:12.052Z,100.00
2023-05-06T22:41:44.998Z,100.00
2023-05-06T22:44:18.167Z,100.00
2023-05-06T22:46:51.794Z,100.00
2023-05-06T22:49:28.840Z,100.00
2023-05-06T22:52:01.753Z,100.00
2023-05-06T22:54:36.251Z,100.00
2023-05-06T22:57:09.204Z,100.00
2023-05-06T22:59:42.240Z,100.00
2023-05-06T23:02:15.164Z,100.00
2023-05-06T23:04:47.979Z,100.00
2023-05-06T23:07:21.304Z,100.00
2023-05-06T23:09:55.636Z,100.00
2023-05-06T23:12:32.451Z,100.00
2023-05-06T23:15:06.532Z,100.00
2023-05-06T23:17:39.279Z,100.00
2023-05-06T23:20:13.185Z,100.00
2023-05-06T23:22:46.254Z,100.00
2023-05-06T23:25:21.072Z,100.00
2023-05-06T23:27:54.614Z,100.00
2023-05-06T23:30:27.582Z,100.00
2023-05-06T23:33:00.534Z,100.00
2023-05-06T23:35:33.601Z,100.00
2023-05-06T23:38:06.551Z,100.00
2023-05-06T23:40:40.752Z,100.00
2023-05-06T23:43:13.581Z,100.00
2023-05-06T23:45:46.375Z,100.00
2023-05-06T23:48:19.145Z,100.00
2023-05-06T23:50:54.438Z,100.00
2023-05-06T23:53:27.275Z,100.00
2023-05-06T23:56:01.514Z,100.00
2023-05-06T23:58:34.642Z,100.00
